createdAt,value
2022-10-19T00:02:08.275Z,2.17
2022-10-19T00:04:34.811Z,2.50
2022-10-19T00:07:01.375Z,2.33
2022-10-19T00:09:27.911Z,2.17
2022-10-19T00:11:54.367Z,3.05
2022-10-19T00:14:22.608Z,2.80
2022-10-19T00:16:50.100Z,2.45
2022-10-19T00:19:18.071Z,1.95
2022-10-19T00:21:44.966Z,2.95
2022-10-19T00:24:11.577Z,2.88
2022-10-19T00:26:38.250Z,2.85
2022-10-19T00:29:05.385Z,2.92
2022-10-19T00:31:31.988Z,3.00
2022-10-19T00:33:59.015Z,2.40
2022-10-19T00:36:26.890Z,3.55
2022-10-19T00:38:54.105Z,2.10
2022-10-19T00:41:21.708Z,2.47
2022-10-19T00:43:54.304Z,2.28
2022-10-19T00:46:20.820Z,2.97
2022-10-19T00:51:18.957Z,2.40
2022-10-19T00:53:45.503Z,1.83
2022-10-19T00:56:14.548Z,2.28
2022-10-19T00:58:41.866Z,2.03
2022-10-19T01:01:08.918Z,2.90
2022-10-19T01:03:35.466Z,2.40
2022-10-19T01:06:02.024Z,2.33
2022-10-19T01:08:28.952Z,2.30
2022-10-19T01:11:18.726Z,2.60
2022-10-19T01:13:51.359Z,2.72
2022-10-19T01:16:26.846Z,2.83
2022-10-19T01:18:58.386Z,2.80
2022-10-19T01:21:26.359Z,3.28
2022-10-19T01:24:08.318Z,3.70
2022-10-19T01:26:53.644Z,2.45
2022-10-19T01:29:23.149Z,2.83
2022-10-19T01:31:57.973Z,3.10
2022-10-19T01:34:30.555Z,2.67
2022-10-19T01:36:59.888Z,2.35
2022-10-19T01:39:29.597Z,3.88
2022-10-19T01:41:56.224Z,2.42
2022-10-19T01:44:26.321Z,2.13
2022-10-19T01:46:55.376Z,2.03
2022-10-19T01:49:27.247Z,2.38
2022-10-19T01:51:56.330Z,2.08
2022-10-19T01:54:24.192Z,2.78
2022-10-19T01:56:51.612Z,2.00
2022-10-19T01:59:19.148Z,2.80
2022-10-19T02:01:47.166Z,2.08
2022-10-19T02:04:15.036Z,2.25
2022-10-19T02:06:41.596Z,2.28
2022-10-19T02:09:08.060Z,2.00
2022-10-19T02:11:35.667Z,1.70
2022-10-19T02:14:06.360Z,1.60
2022-10-19T02:16:35.251Z,1.73
2022-10-19T02:19:02.671Z,1.50
2022-10-19T02:21:29.373Z,1.10
2022-10-19T02:23:55.816Z,0.93
2022-10-19T02:26:22.380Z,1.10
2022-10-19T02:28:49.507Z,1.35
2022-10-19T02:31:16.329Z,1.75
2022-10-19T02:33:42.857Z,1.02
2022-10-19T02:36:09.394Z,0.80
2022-10-19T02:38:35.923Z,1.27
2022-10-19T02:41:14.563Z,0.63
2022-10-19T02:43:42.731Z,0.60
2022-10-19T02:46:13.927Z,0.50
2022-10-19T02:48:40.832Z,0.57
2022-10-19T02:51:07.453Z,0.60
2022-10-19T02:53:34.088Z,0.57
2022-10-19T02:56:00.594Z,0.77
2022-10-19T02:58:27.072Z,1.10
2022-10-19T03:00:53.619Z,1.23
2022-10-19T03:03:20.154Z,0.50
2022-10-19T03:05:46.633Z,0.95
2022-10-19T03:08:13.113Z,0.90
2022-10-19T03:10:39.544Z,0.80
2022-10-19T03:13:05.975Z,0.73
2022-10-19T03:15:32.462Z,0.90
2022-10-19T03:17:58.983Z,0.75
2022-10-19T03:20:25.488Z,0.60
2022-10-19T03:25:23.346Z,1.58
2022-10-19T03:27:49.824Z,0.77
2022-10-19T03:30:16.263Z,1.00
2022-10-19T03:32:42.725Z,1.00
2022-10-19T03:35:09.306Z,1.15
2022-10-19T03:37:36.089Z,2.08
2022-10-19T03:40:03.021Z,1.90
2022-10-19T03:42:29.523Z,0.85
2022-10-19T03:44:56.018Z,1.00
2022-10-19T03:47:22.551Z,1.35
2022-10-19T03:49:50.529Z,1.17
2022-10-19T03:52:18.383Z,1.40
2022-10-19T03:54:45.314Z,1.25
2022-10-19T03:57:11.847Z,2.35
2022-10-19T03:59:38.354Z,0.98
2022-10-19T04:02:04.807Z,0.98
2022-10-19T04:04:31.263Z,0.98
2022-10-19T04:06:57.755Z,1.23
2022-10-19T04:09:24.411Z,1.45
2022-10-19T04:11:51.109Z,1.02
2022-10-19T04:14:31.617Z,1.10
2022-10-19T04:16:59.743Z,0.95
2022-10-19T04:19:26.363Z,1.23
2022-10-19T04:21:52.799Z,1.25
2022-10-19T04:24:19.299Z,0.73
2022-10-19T04:26:50.236Z,1.15
2022-10-19T04:29:17.487Z,0.98
2022-10-19T04:31:43.986Z,1.02
2022-10-19T04:34:10.685Z,0.80
2022-10-19T04:36:37.389Z,1.00
2022-10-19T04:39:04.993Z,1.10
2022-10-19T04:41:31.652Z,1.40
2022-10-19T04:43:59.710Z,1.15
2022-10-19T04:46:26.841Z,0.90
2022-10-19T04:48:53.683Z,0.88
2022-10-19T04:51:20.662Z,1.02
2022-10-19T04:53:47.471Z,1.15
2022-10-19T04:56:18.778Z,1.02
2022-10-19T04:58:45.626Z,0.85
2022-10-19T05:01:13.408Z,0.60
2022-10-19T05:03:40.018Z,0.90
2022-10-19T05:06:07.162Z,1.10
2022-10-19T05:08:33.631Z,0.88
2022-10-19T05:11:04.139Z,1.65
2022-10-19T05:13:31.774Z,1.00
2022-10-19T05:15:59.112Z,0.75
2022-10-19T05:18:25.582Z,1.00
2022-10-19T05:20:52.114Z,0.70
2022-10-19T05:23:18.565Z,0.85
2022-10-19T05:25:45.191Z,1.17
2022-10-19T05:28:11.709Z,0.55
2022-10-19T05:30:39.355Z,0.73
2022-10-19T05:33:05.937Z,0.60
2022-10-19T05:35:32.431Z,1.20
2022-10-19T05:37:58.960Z,0.75
2022-10-19T05:40:25.460Z,0.65
2022-10-19T05:42:51.928Z,0.88
2022-10-19T05:45:18.421Z,0.80
2022-10-19T05:47:44.943Z,0.93
2022-10-19T05:50:11.432Z,0.50
2022-10-19T05:52:37.969Z,0.85
2022-10-19T05:55:04.640Z,0.80
2022-10-19T05:57:32.802Z,0.85
2022-10-19T05:59:59.624Z,0.70
2022-10-19T06:02:26.195Z,0.60
2022-10-19T06:04:52.684Z,0.95
2022-10-19T06:07:19.125Z,1.00
2022-10-19T06:09:46.143Z,0.82
2022-10-19T06:12:13.101Z,0.65
2022-10-19T06:14:42.569Z,0.70
2022-10-19T06:17:09.382Z,0.70
2022-10-19T06:19:35.887Z,0.63
2022-10-19T06:22:02.576Z,1.05
2022-10-19T06:24:29.159Z,0.60
2022-10-19T06:26:55.699Z,0.55
2022-10-19T06:29:22.133Z,0.50
2022-10-19T06:31:48.735Z,0.60
2022-10-19T06:34:15.242Z,0.50
2022-10-19T06:36:41.697Z,1.50
2022-10-19T06:39:08.198Z,0.80
2022-10-19T06:41:35.024Z,0.98
2022-10-19T06:44:01.539Z,0.63
2022-10-19T06:46:28.055Z,0.95
2022-10-19T06:48:58.574Z,0.68
2022-10-19T06:51:26.139Z,0.50
2022-10-19T06:53:56.487Z,0.52
2022-10-19T06:56:24.783Z,0.63
2022-10-19T06:58:51.615Z,0.80
2022-10-19T07:01:18.450Z,0.60
2022-10-19T07:03:45.146Z,1.50
2022-10-19T07:06:12.272Z,0.90
2022-10-19T07:08:39.578Z,0.65
2022-10-19T07:11:08.554Z,0.82
2022-10-19T07:13:35.064Z,1.30
2022-10-19T07:16:03.637Z,0.70
2022-10-19T07:18:30.110Z,1.00
2022-10-19T07:21:00.531Z,0.60
2022-10-19T07:23:27.747Z,0.90
2022-10-19T07:25:55.512Z,0.50
2022-10-19T07:28:22.158Z,0.50
2022-10-19T07:30:48.669Z,1.30
2022-10-19T07:33:15.158Z,0.93
2022-10-19T07:35:41.623Z,1.02
2022-10-19T07:38:08.635Z,0.70
2022-10-19T07:40:35.383Z,0.80
2022-10-19T07:43:01.938Z,1.83
2022-10-19T07:45:28.439Z,1.33
2022-10-19T07:47:54.915Z,0.80
2022-10-19T07:50:23.244Z,0.90
2022-10-19T07:52:51.215Z,0.75
2022-10-19T07:55:17.685Z,0.85
2022-10-19T07:57:47.143Z,0.63
2022-10-19T08:00:13.886Z,0.80
2022-10-19T08:02:59.698Z,0.50
2022-10-19T08:05:26.611Z,0.82
2022-10-19T08:07:53.097Z,0.95
2022-10-19T08:10:19.566Z,0.90
2022-10-19T08:12:46.017Z,0.60
2022-10-19T08:15:12.553Z,1.00
2022-10-19T08:17:39.818Z,0.98
2022-10-19T08:20:06.988Z,1.10
2022-10-19T08:22:33.831Z,0.80
2022-10-19T08:25:00.536Z,2.85
2022-10-19T08:27:27.167Z,0.93
2022-10-19T08:29:53.657Z,1.40
2022-10-19T08:32:20.239Z,0.80
2022-10-19T08:34:46.830Z,1.33
2022-10-19T08:37:26.034Z,1.10
2022-10-19T08:39:59.373Z,0.95
2022-10-19T08:42:41.051Z,0.77
2022-10-19T08:45:07.479Z,0.70
2022-10-19T08:47:37.341Z,1.60
2022-10-19T08:50:14.481Z,0.98
2022-10-19T08:52:42.075Z,0.80
2022-10-19T08:55:15.083Z,0.80
2022-10-19T08:57:50.597Z,1.05
2022-10-19T09:00:36.165Z,0.90
2022-10-19T09:03:27.145Z,0.85
2022-10-19T09:06:14.836Z,1.02
2022-10-19T09:08:41.380Z,2.20
2022-10-19T09:11:10.492Z,1.85
2022-10-19T09:13:41.698Z,0.75
2022-10-19T09:16:20.409Z,1.23
2022-10-19T09:18:50.723Z,0.95
2022-10-19T09:21:30.956Z,0.95
2022-10-19T09:24:05.713Z,1.13
2022-10-19T09:26:47.013Z,1.08
2022-10-19T09:29:33.744Z,1.00
2022-10-19T09:32:01.517Z,0.95
2022-10-19T09:34:36.565Z,0.90
2022-10-19T09:37:03.533Z,1.75
2022-10-19T09:39:30.916Z,1.33
2022-10-19T09:41:58.963Z,1.10
2022-10-19T09:44:26.555Z,0.88
2022-10-19T09:47:02.339Z,0.98
2022-10-19T09:49:39.382Z,0.80
2022-10-19T09:52:06.133Z,0.90
2022-10-19T09:54:37.088Z,1.20
2022-10-19T09:57:05.039Z,2.05
2022-10-19T09:59:35.458Z,1.25
2022-10-19T10:02:18.694Z,1.23
2022-10-19T10:04:54.954Z,1.58
2022-10-19T10:07:34.477Z,0.52
2022-10-19T10:10:01.288Z,0.68
2022-10-19T10:12:27.910Z,0.80
2022-10-19T10:14:56.483Z,1.00
2022-10-19T10:17:27.420Z,1.02
2022-10-19T10:19:59.855Z,1.05
2022-10-19T10:22:31.170Z,1.17
2022-10-19T10:24:57.833Z,1.00
2022-10-19T10:27:38.351Z,1.33
2022-10-19T10:30:06.081Z,1.20
2022-10-19T10:32:37.125Z,1.58
2022-10-19T10:35:08.344Z,1.05
2022-10-19T10:37:38.267Z,0.70
2022-10-19T10:40:05.565Z,1.05
2022-10-19T10:42:37.187Z,1.67
2022-10-19T10:45:04.677Z,0.70
2022-10-19T10:47:31.280Z,0.90
2022-10-19T10:49:59.024Z,0.95
2022-10-19T10:52:27.729Z,0.70
2022-10-19T10:55:14.689Z,0.98
2022-10-19T10:57:44.897Z,0.90
2022-10-19T11:00:14.219Z,0.80
2022-10-19T11:02:47.003Z,1.00
2022-10-19T11:05:17.264Z,0.70
2022-10-19T11:07:45.497Z,0.77
2022-10-19T11:10:18.094Z,1.10
2022-10-19T11:13:04.804Z,1.15
2022-10-19T11:15:35.701Z,1.63
2022-10-19T11:18:02.137Z,1.65
2022-10-19T11:20:30.848Z,1.10
2022-10-19T11:22:57.294Z,1.10
2022-10-19T11:25:36.173Z,0.98
2022-10-19T11:28:21.465Z,1.10
2022-10-19T11:31:08.199Z,1.92
2022-10-19T11:33:34.672Z,1.55
2022-10-19T11:36:15.786Z,1.08
2022-10-19T11:38:51.281Z,1.77
2022-10-19T11:41:36.019Z,1.55
2022-10-19T11:44:07.456Z,1.17
2022-10-19T11:46:36.896Z,0.90
2022-10-19T11:49:12.479Z,1.00
2022-10-19T11:51:40.771Z,0.82
2022-10-19T11:54:14.844Z,1.05
2022-10-19T11:57:08.288Z,1.35
2022-10-19T11:59:47.818Z,1.98
2022-10-19T12:02:23.602Z,1.13
2022-10-19T12:04:56.129Z,1.13
2022-10-19T12:07:31.660Z,0.90
2022-10-19T12:10:03.175Z,1.20
2022-10-19T12:12:37.582Z,1.02
2022-10-19T12:15:04.147Z,0.93
2022-10-19T12:17:33.074Z,2.85
2022-10-19T12:20:03.042Z,0.90
2022-10-19T12:22:30.520Z,0.63
2022-10-19T12:24:59.792Z,0.80
2022-10-19T12:27:37.030Z,1.52
2022-10-19T12:30:08.322Z,1.45
2022-10-19T12:32:42.673Z,1.00
2022-10-19T12:35:29.388Z,1.10
2022-10-19T12:38:11.019Z,1.38
2022-10-19T12:40:37.467Z,1.02
2022-10-19T12:43:13.447Z,1.00
2022-10-19T12:45:44.780Z,1.92
2022-10-19T12:48:11.308Z,1.45
2022-10-19T12:50:49.898Z,1.23
2022-10-19T12:56:03.531Z,2.50
2022-10-19T12:58:41.517Z,1.90
2022-10-19T13:01:15.856Z,1.58
2022-10-19T13:03:44.519Z,1.80
2022-10-19T13:06:34.387Z,1.30
2022-10-19T13:09:02.922Z,1.48
2022-10-19T13:11:29.514Z,2.03
2022-10-19T13:13:59.287Z,1.52
2022-10-19T13:16:28.594Z,0.70
2022-10-19T13:19:13.606Z,1.08
2022-10-19T13:21:44.121Z,1.13
2022-10-19T13:27:26.549Z,1.40
2022-10-19T13:29:53.126Z,0.95
2022-10-19T13:32:35.468Z,1.42
2022-10-19T13:35:21.069Z,1.75
2022-10-19T13:38:07.491Z,1.00
2022-10-19T13:40:34.160Z,1.02
2022-10-19T13:43:01.150Z,1.33
2022-10-19T13:45:27.726Z,1.85
2022-10-19T13:48:02.151Z,1.42
2022-10-19T13:50:31.529Z,1.15
2022-10-19T13:53:16.866Z,0.80
2022-10-19T13:55:47.387Z,1.05
2022-10-19T13:58:16.847Z,1.00
2022-10-19T14:01:15.522Z,0.90
2022-10-19T14:03:44.812Z,1.20
2022-10-19T14:06:22.321Z,1.50
2022-10-19T14:08:51.210Z,1.42
2022-10-19T14:11:24.675Z,1.48
2022-10-19T14:14:07.806Z,1.08
2022-10-19T14:16:34.306Z,1.77
2022-10-19T14:19:00.750Z,1.00
2022-10-19T14:21:31.384Z,1.15
2022-10-19T14:23:58.119Z,0.98
2022-10-19T14:26:26.628Z,1.42
2022-10-19T14:28:54.569Z,1.30
2022-10-19T14:31:22.835Z,1.60
2022-10-19T14:33:54.327Z,1.45
2022-10-19T14:36:25.360Z,1.70
2022-10-19T14:38:55.987Z,1.50
2022-10-19T14:41:28.348Z,1.95
2022-10-19T14:43:55.947Z,1.33
2022-10-19T14:46:26.075Z,1.52
2022-10-19T14:48:58.827Z,1.63
2022-10-19T14:51:44.270Z,2.40
2022-10-19T14:54:13.911Z,1.40
2022-10-19T14:56:47.405Z,1.67
2022-10-19T14:59:16.869Z,1.80
2022-10-19T15:01:48.907Z,1.65
2022-10-19T15:04:23.355Z,1.77
2022-10-19T15:06:49.827Z,2.53
2022-10-19T15:09:47.953Z,1.20
2022-10-19T15:12:16.838Z,1.80
2022-10-19T15:14:43.636Z,1.20
2022-10-19T15:17:30.157Z,1.13
2022-10-19T15:19:58.552Z,1.27
2022-10-19T15:22:31.244Z,1.20
2022-10-19T15:25:07.647Z,1.27
2022-10-19T15:27:46.160Z,1.48
2022-10-19T15:30:18.730Z,1.10
2022-10-19T15:32:54.127Z,1.20
2022-10-19T15:35:20.589Z,0.98
2022-10-19T15:37:48.673Z,1.33
2022-10-19T15:40:29.623Z,2.22
2022-10-19T15:42:56.119Z,2.45
2022-10-19T15:45:33.375Z,2.60
2022-10-19T15:48:18.567Z,2.03
2022-10-19T15:50:47.946Z,1.52
2022-10-19T15:53:18.199Z,1.42
2022-10-19T15:55:45.127Z,2.03
2022-10-19T15:58:12.173Z,1.85
2022-10-19T16:00:39.209Z,1.83
2022-10-19T16:03:05.755Z,2.05
2022-10-19T16:05:32.818Z,2.28
2022-10-19T16:07:59.313Z,1.70
2022-10-19T16:10:26.289Z,1.40
2022-10-19T16:12:53.099Z,2.08
2022-10-19T16:15:24.473Z,1.60
2022-10-19T16:17:52.643Z,1.80
2022-10-19T16:20:19.382Z,1.40
2022-10-19T16:22:46.586Z,2.28
2022-10-19T16:25:14.170Z,1.40
2022-10-19T16:27:41.296Z,2.30
2022-10-19T16:30:08.096Z,2.55
2022-10-19T16:32:34.669Z,2.40
2022-10-19T16:35:01.232Z,1.50
2022-10-19T16:37:27.691Z,2.03
2022-10-19T16:39:54.174Z,1.90
2022-10-19T16:42:22.306Z,2.03
2022-10-19T16:44:49.490Z,1.95
2022-10-19T16:47:17.075Z,1.83
2022-10-19T16:49:43.585Z,2.30
2022-10-19T16:52:13.334Z,3.72
2022-10-19T16:54:40.024Z,2.28
2022-10-19T16:57:09.770Z,1.90
2022-10-19T16:59:36.689Z,1.58
2022-10-19T17:02:03.195Z,1.40
2022-10-19T17:04:29.694Z,1.30
2022-10-19T17:06:57.197Z,1.40
2022-10-19T17:12:11.853Z,1.88
2022-10-19T17:14:39.123Z,1.33
2022-10-19T17:17:05.600Z,2.00
2022-10-19T17:19:32.349Z,1.92
2022-10-19T17:21:59.463Z,2.00
2022-10-19T17:24:26.147Z,1.20
2022-10-19T17:26:53.174Z,1.27
2022-10-19T17:29:20.672Z,2.78
2022-10-19T17:31:47.174Z,1.42
2022-10-19T17:34:14.029Z,3.08
2022-10-19T17:36:41.861Z,1.88
2022-10-19T17:39:09.596Z,1.80
2022-10-19T17:41:36.227Z,1.75
2022-10-19T17:44:03.447Z,1.58
2022-10-19T17:46:31.300Z,1.33
2022-10-19T17:48:58.453Z,1.30
2022-10-19T17:51:29.287Z,49.75
2022-10-19T17:53:57.371Z,28.75
2022-10-19T17:56:24.371Z,71.88
2022-10-19T17:58:50.857Z,68.68
2022-10-19T18:01:18.493Z,41.55
2022-10-19T18:03:45.069Z,17.13
2022-10-19T18:06:13.027Z,17.10
2022-10-19T18:08:41.592Z,14.35
2022-10-19T18:11:12.447Z,30.55
2022-10-19T18:13:39.773Z,38.67
2022-10-19T18:16:08.652Z,74.43
2022-10-19T18:18:36.198Z,32.63
2022-10-19T18:21:07.074Z,19.63
2022-10-19T18:23:33.643Z,20.10
2022-10-19T18:26:07.728Z,29.70
2022-10-19T18:28:34.711Z,14.77
2022-10-19T18:31:07.282Z,17.48
2022-10-19T18:33:34.091Z,11.52
2022-10-19T18:36:00.572Z,11.07
2022-10-19T18:38:27.124Z,11.93
2022-10-19T18:40:53.699Z,15.13
2022-10-19T18:43:20.185Z,8.95
2022-10-19T18:45:56.335Z,9.68
2022-10-19T18:48:23.258Z,42.50
2022-10-19T18:50:50.089Z,21.60
2022-10-19T18:53:16.836Z,10.93
2022-10-19T18:55:43.347Z,24.80
2022-10-19T18:58:10.559Z,9.15
2022-10-19T19:00:38.988Z,7.28
2022-10-19T19:03:07.406Z,8.30
2022-10-19T19:05:33.885Z,12.93
2022-10-19T19:08:00.410Z,8.13
2022-10-19T19:10:26.953Z,8.43
2022-10-19T19:12:53.637Z,5.70
2022-10-19T19:15:20.206Z,3.88
2022-10-19T19:17:47.046Z,4.82
2022-10-19T19:20:13.591Z,4.60
2022-10-19T19:22:40.046Z,6.47
2022-10-19T19:25:06.713Z,3.72
2022-10-19T19:27:33.309Z,13.32
2022-10-19T19:30:00.766Z,7.45
2022-10-19T19:32:27.641Z,6.03
2022-10-19T19:34:55.011Z,6.68
2022-10-19T19:37:21.614Z,3.00
2022-10-19T19:39:48.070Z,3.63
2022-10-19T19:42:14.589Z,3.95
2022-10-19T19:44:41.069Z,2.60
2022-10-19T19:47:08.487Z,2.95
2022-10-19T19:49:35.002Z,7.25
2022-10-19T19:54:45.985Z,4.47
2022-10-19T19:57:13.523Z,3.20
2022-10-19T19:59:43.268Z,1.80
2022-10-19T20:02:10.632Z,1.90
2022-10-19T20:04:37.201Z,1.30
2022-10-19T20:07:03.766Z,109.88
2022-10-19T20:09:30.372Z,50.75
2022-10-19T20:11:58.947Z,22.80
2022-10-19T20:14:25.469Z,19.15
2022-10-19T20:16:51.941Z,11.00
2022-10-19T20:19:18.438Z,10.85
2022-10-19T20:21:44.981Z,8.30
2022-10-19T20:24:12.332Z,16.17
2022-10-19T20:26:38.893Z,16.42
2022-10-19T20:29:05.407Z,14.68
2022-10-19T20:31:33.630Z,18.13
2022-10-19T20:34:00.288Z,19.20
2022-10-19T20:36:26.910Z,8.07
2022-10-19T20:38:54.691Z,17.13
2022-10-19T20:41:22.058Z,4.90
2022-10-19T20:43:48.735Z,6.72
2022-10-19T20:46:16.589Z,6.70
2022-10-19T20:48:43.279Z,3.78
2022-10-19T20:51:17.296Z,8.45
2022-10-19T20:53:47.658Z,11.52
2022-10-19T20:56:15.665Z,7.75
2022-10-19T20:58:43.693Z,3.25
2022-10-19T21:01:12.821Z,4.10
2022-10-19T21:03:39.454Z,6.75
2022-10-19T21:06:06.888Z,3.40
2022-10-19T21:08:36.511Z,5.80
2022-10-19T21:11:20.068Z,2.60
2022-10-19T21:13:47.129Z,4.05
2022-10-19T21:16:13.622Z,2.38
2022-10-19T21:18:40.642Z,3.20
2022-10-19T21:21:10.971Z,3.33
2022-10-19T21:23:37.504Z,2.10
2022-10-19T21:26:03.986Z,2.22
2022-10-19T21:28:30.445Z,2.58
2022-10-19T21:30:56.954Z,2.28
2022-10-19T21:33:25.549Z,2.30
2022-10-19T21:35:52.011Z,2.72
2022-10-19T21:38:18.478Z,2.08
2022-10-19T21:40:44.986Z,2.17
2022-10-19T21:43:11.552Z,1.88
2022-10-19T21:45:38.393Z,2.05
2022-10-19T21:48:04.947Z,2.42
2022-10-19T21:50:31.423Z,6.60
2022-10-19T21:52:57.960Z,5.00
2022-10-19T21:55:25.264Z,3.30
2022-10-19T21:57:51.725Z,2.47
2022-10-19T22:00:18.312Z,1.48
2022-10-19T22:02:44.746Z,1.52
2022-10-19T22:05:11.223Z,1.95
2022-10-19T22:07:38.046Z,1.75
2022-10-19T22:10:04.950Z,2.47
2022-10-19T22:12:31.459Z,1.60
2022-10-19T22:14:57.991Z,1.10
2022-10-19T22:17:24.505Z,1.60
2022-10-19T22:19:51.044Z,1.75
2022-10-19T22:22:17.622Z,1.42
2022-10-19T22:24:44.116Z,1.55
2022-10-19T22:27:10.591Z,1.05
2022-10-19T22:29:37.206Z,1.95
2022-10-19T22:32:03.753Z,1.67
2022-10-19T22:34:30.531Z,1.52
2022-10-19T22:36:57.040Z,1.60
2022-10-19T22:39:26.967Z,1.42
2022-10-19T22:42:32.289Z,1.30
2022-10-19T22:44:58.937Z,3.20
2022-10-19T22:47:25.518Z,3.05
2022-10-19T22:49:52.041Z,2.03
2022-10-19T22:52:23.558Z,2.90
2022-10-19T22:54:51.226Z,1.48
2022-10-19T22:57:17.813Z,2.20
2022-10-19T22:59:44.271Z,1.73
2022-10-19T23:02:10.746Z,1.30
2022-10-19T23:04:37.205Z,2.00
2022-10-19T23:07:03.728Z,1.60
2022-10-19T23:09:30.284Z,1.80
2022-10-19T23:11:56.775Z,2.03
2022-10-19T23:14:23.269Z,1.80
2022-10-19T23:16:49.767Z,2.28
2022-10-19T23:19:16.282Z,1.50
2022-10-19T23:21:42.796Z,1.70
2022-10-19T23:24:09.257Z,2.00
2022-10-19T23:26:36.556Z,2.70
2022-10-19T23:29:03.050Z,1.65
2022-10-19T23:31:30.465Z,1.40
2022-10-19T23:33:56.951Z,1.70
2022-10-19T23:36:24.768Z,1.98
2022-10-19T23:38:51.898Z,1.40
2022-10-19T23:41:18.894Z,1.35
2022-10-19T23:43:45.639Z,1.35
2022-10-19T23:46:12.259Z,1.45
2022-10-19T23:48:38.875Z,2.15
2022-10-19T23:51:09.529Z,1.50
2022-10-19T23:53:39.977Z,1.55
2022-10-19T23:56:08.878Z,2.30
2022-10-19T23:58:35.839Z,1.60
